Weather at Langport Airstrip

Public forecast

Using degrees Celsius for public forecast. Weather courtesy of forecast.io.

Closest aviation weather report (METAR) to Langport Airstrip

Closest report is RNAS Yeovilton, 8.2 nm (15.3 km) ESE. Retrieved 2021/10/28 20:20 UTC (0 seconds ago):

EGDY 282020Z 17016KT 4000 -RA SCT010 BKN020 15/14 Q0999 TEMPO 3500 RADZ RMK GRN TEMPO YLO1

Closest aviation forecast (TAF) to Langport Airstrip

Forecast is more than 12 hours old.

Closest forecast is RNAS Yeovilton, 8.2 nm (15.3 km) ESE. Retrieved 2020/10/05 06:30 UTC (1 year ago):

TAF TAF EGDY 051025Z 0506/0518 CNL